createdAt,value
2022-10-11T00:04:59.196Z,101887.97
2022-10-11T00:10:00.619Z,101888.88
2022-10-11T00:15:02.980Z,101889.84
2022-10-11T00:20:04.912Z,101889.84
2022-10-11T00:25:08.404Z,101898.75
2022-10-11T00:30:10.959Z,101905.03
2022-10-11T00:35:12.476Z,101894.41
2022-10-11T00:40:17.271Z,101909.56
2022-10-11T00:45:27.568Z,101906.91
2022-10-11T00:50:33.064Z,101906.09
2022-10-11T00:55:40.285Z,101906.06
2022-10-11T01:00:41.979Z,101912.41
2022-10-11T01:05:44.256Z,101910.59
2022-10-11T01:10:45.737Z,101920.38
2022-10-11T01:15:56.887Z,101918.69
2022-10-11T01:21:04.097Z,101924.72
2022-10-11T01:27:00.427Z,101916.81
2022-10-11T01:32:24.426Z,101924.00
2022-10-11T01:37:31.935Z,101916.09
2022-10-11T01:42:36.241Z,101917.06
2022-10-11T01:47:38.999Z,101925.88
2022-10-11T01:52:44.427Z,101922.22
2022-10-11T01:57:45.767Z,101922.47
2022-10-11T02:03:06.079Z,101925.19
2022-10-11T02:08:38.666Z,101926.94
2022-10-11T02:13:46.146Z,101933.25
2022-10-11T02:18:51.647Z,101932.28
2022-10-11T02:24:09.699Z,101936.84
2022-10-11T02:29:14.897Z,101935.09
2022-10-11T02:34:35.566Z,101935.09
2022-10-11T02:39:42.568Z,101940.41
2022-10-11T02:44:53.174Z,101942.28
2022-10-11T02:49:55.243Z,101948.44
2022-10-11T02:54:56.706Z,101952.00
2022-10-11T02:59:58.123Z,101958.22
2022-10-11T03:05:00.117Z,101956.47
2022-10-11T03:10:01.951Z,101962.75
2022-10-11T03:15:04.081Z,101967.16
2022-10-11T03:20:06.513Z,101965.34
2022-10-11T03:25:08.410Z,101971.50
2022-10-11T03:30:13.296Z,101973.25
2022-10-11T03:35:16.650Z,101977.78
2022-10-11T03:40:18.200Z,101990.16
2022-10-11T03:45:19.624Z,101987.50
2022-10-11T03:50:21.076Z,101988.41
2022-10-11T03:55:22.513Z,101989.31
2022-10-11T04:00:24.322Z,101987.56
2022-10-11T04:05:25.771Z,101995.56
2022-10-11T04:10:27.236Z,101986.72
2022-10-11T04:15:28.721Z,102000.03
2022-10-11T04:20:30.152Z,102008.88
2022-10-11T04:25:31.605Z,102006.22
2022-10-11T04:30:33.025Z,102010.69
2022-10-11T04:35:34.461Z,102015.09
2022-10-11T04:40:35.880Z,102012.47
2022-10-11T04:45:37.338Z,102011.53
2022-10-11T04:50:38.732Z,102015.13
2022-10-11T04:55:42.399Z,102025.75
2022-10-11T05:00:43.810Z,102035.50
2022-10-11T05:05:45.268Z,102041.69
2022-10-11T05:11:00.497Z,102033.75
2022-10-11T05:16:06.931Z,102044.34
2022-10-11T05:21:22.534Z,102036.41
2022-10-11T05:26:27.327Z,102043.47
2022-10-11T05:31:28.908Z,102048.78
2022-10-11T05:36:30.399Z,102053.19
2022-10-11T05:41:31.972Z,102061.13
2022-10-11T05:46:33.518Z,102069.97
2022-10-11T05:51:35.075Z,102079.69
2022-10-11T05:56:36.470Z,102078.78
2022-10-11T06:01:37.938Z,102085.81
2022-10-11T06:06:39.375Z,102080.59
2022-10-11T06:11:41.307Z,102087.59
2022-10-11T06:16:42.724Z,102092.84
2022-10-11T06:21:45.688Z,102090.28
2022-10-11T06:26:48.972Z,102097.34
2022-10-11T06:31:50.451Z,102108.88
2022-10-11T06:36:52.364Z,102110.66
2022-10-11T06:41:53.912Z,102129.22
2022-10-11T06:46:55.959Z,102123.03
2022-10-11T06:51:57.440Z,102126.53
2022-10-11T06:56:59.245Z,102137.19
2022-10-11T07:02:00.705Z,102138.97
2022-10-11T07:07:02.164Z,102148.75
2022-10-11T07:12:03.737Z,102147.84
2022-10-11T07:17:05.433Z,102155.81
2022-10-11T07:22:06.993Z,102163.81
2022-10-11T07:27:08.441Z,102156.72
2022-10-11T07:32:09.987Z,102166.44
2022-10-11T07:37:11.630Z,102163.75
2022-10-11T07:42:13.091Z,102161.09
2022-10-11T07:47:14.505Z,102163.69
2022-10-11T07:52:15.964Z,102159.22
2022-10-11T07:57:17.414Z,102163.53
2022-10-11T08:02:18.911Z,102169.69
2022-10-11T08:07:20.333Z,102169.63
2022-10-11T08:12:21.876Z,102175.75
2022-10-11T08:17:23.409Z,102180.16
2022-10-11T08:22:24.877Z,102183.63
2022-10-11T08:27:26.717Z,102176.50
2022-10-11T08:32:29.782Z,102185.25
2022-10-11T08:37:31.419Z,102185.16
2022-10-11T08:42:43.289Z,102195.72
2022-10-11T08:47:45.629Z,102194.84
2022-10-11T08:52:56.060Z,102196.53
2022-10-11T08:57:58.963Z,102185.78
2022-10-11T09:03:21.856Z,102187.50
2022-10-11T09:08:31.303Z,102185.59
2022-10-11T09:14:10.650Z,102187.31
2022-10-11T09:19:37.556Z,102189.69
2022-10-11T09:24:47.217Z,102195.03
2022-10-11T09:30:09.300Z,102197.53
2022-10-11T09:35:14.456Z,102196.47
2022-10-11T09:40:34.357Z,102203.41
2022-10-11T09:45:35.693Z,102198.88
2022-10-11T09:50:39.291Z,102200.41
2022-10-11T09:56:01.022Z,102207.53
2022-10-11T10:01:08.925Z,102210.94
2022-10-11T10:06:24.856Z,102207.34
2022-10-11T10:11:36.482Z,102200.75
2022-10-11T10:16:37.924Z,102203.19
2022-10-11T10:21:46.655Z,102211.19
2022-10-11T10:27:10.034Z,102202.94
2022-10-11T10:32:23.542Z,102197.44
2022-10-11T10:37:52.240Z,102195.44
2022-10-11T10:42:55.072Z,102198.94
2022-10-11T10:48:37.750Z,102195.22
2022-10-11T10:54:19.495Z,102193.50
2022-10-11T10:59:51.843Z,102199.00
2022-10-11T11:05:11.624Z,102185.94
2022-10-11T11:10:20.906Z,102189.75
2022-10-11T11:15:38.283Z,102190.34
2022-10-11T11:21:17.322Z,102192.09
2022-10-11T11:26:49.944Z,102182.44
2022-10-11T11:32:10.645Z,102178.31
2022-10-11T11:37:19.936Z,102164.53
2022-10-11T11:42:29.202Z,102164.22
2022-10-11T11:47:37.738Z,102164.78
2022-10-11T11:52:44.007Z,102162.97
2022-10-11T11:57:51.400Z,102157.97
2022-10-11T12:02:57.967Z,102157.84
2022-10-11T12:08:05.984Z,102156.59
2022-10-11T12:13:09.975Z,102154.31
2022-10-11T12:18:15.290Z,102155.72
2022-10-11T12:23:28.836Z,102146.53
2022-10-11T12:28:42.895Z,102146.81
2022-10-11T12:33:48.471Z,102137.66
2022-10-11T12:39:21.187Z,102128.53
2022-10-11T12:44:26.380Z,102117.91
2022-10-11T12:49:36.286Z,102124.13
2022-10-11T12:54:59.483Z,102125.00
2022-10-11T13:00:30.869Z,102122.84
2022-10-11T13:05:45.035Z,102123.72
2022-10-11T13:10:48.395Z,102113.44
2022-10-11T13:15:54.166Z,102112.72
2022-10-11T13:20:55.717Z,102117.72
2022-10-11T13:25:57.176Z,102108.16
2022-10-11T13:30:59.119Z,102104.53
2022-10-11T13:36:03.882Z,102094.63
2022-10-11T13:41:08.903Z,102090.06
2022-10-11T13:46:18.734Z,102085.72
2022-10-11T13:51:32.338Z,102088.22
2022-10-11T13:56:43.924Z,102082.66
2022-10-11T14:01:46.259Z,102077.41
2022-10-11T14:06:59.285Z,102076.69
2022-10-11T14:12:25.714Z,102084.31
2022-10-11T14:17:45.575Z,102071.56
2022-10-11T14:22:46.897Z,102068.28
2022-10-11T14:27:48.961Z,102072.97
2022-10-11T14:32:52.891Z,102067.53
2022-10-11T14:37:54.537Z,102060.19
2022-10-11T14:42:56.580Z,102061.56
2022-10-11T14:47:58.404Z,102061.59
2022-10-11T14:52:59.961Z,102064.31
2022-10-11T14:58:01.476Z,102063.41
2022-10-11T15:03:04.745Z,102058.91
2022-10-11T15:08:07.210Z,102056.06
2022-10-11T15:13:09.060Z,102056.38
2022-10-11T15:18:13.421Z,102045.84
2022-10-11T15:23:14.953Z,102046.66
2022-10-11T15:28:28.075Z,102040.84
2022-10-11T15:33:29.649Z,102044.63
2022-10-11T15:38:31.628Z,102044.88
2022-10-11T15:43:33.476Z,102039.81
2022-10-11T15:48:35.268Z,102032.91
2022-10-11T15:53:37.144Z,102022.41
2022-10-11T15:58:40.767Z,102029.41
2022-10-11T16:03:43.216Z,102029.03
2022-10-11T16:08:45.421Z,102033.69
2022-10-11T16:13:47.526Z,102019.69
2022-10-11T16:18:52.088Z,102024.38
2022-10-11T16:23:53.507Z,102025.66
2022-10-11T16:28:56.547Z,102029.75
2022-10-11T16:33:58.068Z,102027.84
2022-10-11T16:39:01.888Z,102020.09
2022-10-11T16:44:03.586Z,102025.31
2022-10-11T16:49:05.303Z,102023.91
2022-10-11T16:54:07.071Z,102025.94
2022-10-11T16:59:08.960Z,102020.16
2022-10-11T17:04:10.792Z,102024.75
2022-10-11T17:09:12.829Z,102026.63
2022-10-11T17:14:14.231Z,102025.94
2022-10-11T17:19:16.351Z,102036.78
2022-10-11T17:24:17.765Z,102031.56
2022-10-11T17:29:20.945Z,102026.13
2022-10-11T17:34:22.398Z,102017.47
2022-10-11T17:39:25.625Z,102021.31
2022-10-11T17:44:27.035Z,102019.41
2022-10-11T17:49:28.810Z,102031.13
2022-10-11T17:54:30.316Z,102023.50
2022-10-11T17:59:32.404Z,102025.44
2022-10-11T18:04:33.978Z,102026.50
2022-10-11T18:09:36.689Z,102023.06
2022-10-11T18:14:38.193Z,102029.19
2022-10-11T18:19:39.613Z,102021.28
2022-10-11T18:24:41.386Z,102023.31
2022-10-11T18:29:43.413Z,102015.34
2022-10-11T18:34:44.934Z,102020.50
2022-10-11T18:39:46.411Z,102023.28
2022-10-11T18:44:47.903Z,102029.78
2022-10-11T18:49:49.400Z,102024.34
2022-10-11T18:54:51.721Z,102020.72
2022-10-11T18:59:53.212Z,102020.84
2022-10-11T19:04:54.964Z,102013.91
2022-10-11T19:09:56.392Z,102012.09
2022-10-11T19:14:57.931Z,102013.97
2022-10-11T19:19:59.435Z,102013.94
2022-10-11T19:25:00.943Z,102020.38
2022-10-11T19:30:02.372Z,102017.66
2022-10-11T19:35:04.074Z,102011.47
2022-10-11T19:40:06.165Z,102008.03
2022-10-11T19:45:08.211Z,102007.28
2022-10-11T19:50:09.813Z,102012.72
2022-10-11T19:55:11.350Z,102015.38
2022-10-11T20:00:13.265Z,102008.31
2022-10-11T20:05:14.764Z,102021.69
2022-10-11T20:10:16.233Z,102019.94
2022-10-11T20:15:17.672Z,102008.50
2022-10-11T20:20:19.435Z,102013.09
2022-10-11T20:25:21.034Z,102007.78
2022-10-11T20:30:22.529Z,102018.41
2022-10-11T20:35:23.995Z,102023.75
2022-10-11T20:40:25.658Z,102020.19
2022-10-11T20:45:27.168Z,102012.25
2022-10-11T20:50:28.575Z,102010.56
2022-10-11T20:55:29.994Z,102004.34
2022-10-11T21:00:31.393Z,102007.00
2022-10-11T21:05:33.213Z,102014.06
2022-10-11T21:10:34.678Z,102007.00
2022-10-11T21:15:36.082Z,101999.06
2022-10-11T21:20:38.788Z,101999.09
2022-10-11T21:25:40.647Z,101997.41
2022-10-11T21:30:42.053Z,101993.84
2022-10-11T21:35:43.548Z,101985.00
2022-10-11T21:40:45.020Z,101989.44
2022-10-11T21:45:46.520Z,101996.50
2022-10-11T21:50:54.893Z,102006.22
2022-10-11T21:55:57.807Z,101998.28
2022-10-11T22:00:59.504Z,102000.13
2022-10-11T22:06:03.069Z,102000.97
2022-10-11T22:11:05.300Z,102000.94
2022-10-11T22:16:09.147Z,102001.88
2022-10-11T22:21:16.784Z,101988.56
2022-10-11T22:26:21.656Z,101990.41
2022-10-11T22:31:23.711Z,101987.75
2022-10-11T22:36:25.832Z,101976.25
2022-10-11T22:41:27.315Z,101983.34
2022-10-11T22:46:28.742Z,101986.88
2022-10-11T22:51:30.173Z,101985.13
2022-10-11T22:56:31.626Z,101981.59
2022-10-11T23:01:33.087Z,101984.22
2022-10-11T23:06:34.472Z,101980.69
2022-10-11T23:11:35.937Z,101979.81
2022-10-11T23:16:37.368Z,101983.34
2022-10-11T23:21:38.764Z,101969.19
2022-10-11T23:26:40.224Z,101975.38
2022-10-11T23:31:41.608Z,101985.13
2022-10-11T23:36:43.071Z,101972.72
2022-10-11T23:41:44.546Z,101983.34
2022-10-11T23:46:46.344Z,101982.44
2022-10-11T23:51:47.751Z,101973.63
2022-10-11T23:56:49.424Z,101977.16
